createdAt,value
2018-09-03T00:01:11.598Z,15.79
2018-09-03T00:03:39.263Z,15.82
2018-09-03T00:06:07.013Z,15.84
2018-09-03T00:08:34.696Z,15.84
2018-09-03T00:11:02.772Z,15.89
2018-09-03T00:13:30.791Z,15.87
2018-09-03T00:15:58.442Z,15.82
2018-09-03T00:18:26.106Z,15.80
2018-09-03T00:20:53.890Z,15.80
2018-09-03T00:23:21.631Z,15.75
2018-09-03T00:25:49.709Z,15.74
2018-09-03T00:28:17.408Z,15.72
2018-09-03T00:30:45.170Z,15.70
2018-09-03T00:33:18.528Z,15.68
2018-09-03T00:35:52.008Z,15.66
2018-09-03T00:38:25.797Z,15.65
2018-09-03T00:40:59.342Z,15.68
2018-09-03T00:43:32.913Z,15.65
2018-09-03T00:48:41.584Z,15.55
2018-09-03T00:51:09.311Z,15.48
2018-09-03T00:53:37.112Z,15.42
2018-09-03T00:56:04.939Z,15.41
2018-09-03T00:58:32.734Z,15.41
2018-09-03T01:01:00.827Z,15.41
2018-09-03T01:03:28.626Z,15.44
2018-09-03T01:05:56.334Z,15.47
2018-09-03T01:08:24.104Z,15.45
2018-09-03T01:10:51.779Z,15.41
2018-09-03T01:13:19.468Z,15.37
2018-09-03T01:15:47.155Z,15.35
2018-09-03T01:18:14.919Z,15.34
2018-09-03T01:20:42.606Z,15.33
2018-09-03T01:23:10.369Z,15.33
2018-09-03T01:25:38.084Z,15.36
2018-09-03T01:28:05.801Z,15.36
2018-09-03T01:30:33.636Z,15.36
2018-09-03T01:33:01.424Z,15.36
2018-09-03T01:35:29.533Z,15.40
2018-09-03T01:37:57.573Z,15.47
2018-09-03T01:40:25.391Z,15.47
2018-09-03T01:42:53.099Z,15.48
2018-09-03T01:45:20.810Z,15.51
2018-09-03T01:47:48.578Z,15.53
2018-09-03T01:50:16.306Z,15.56
2018-09-03T01:52:44.135Z,15.55
2018-09-03T01:55:11.922Z,15.57
2018-09-03T01:57:39.634Z,15.57
2018-09-03T02:00:07.568Z,15.64
2018-09-03T02:02:35.397Z,15.64
2018-09-03T02:05:03.135Z,15.60
2018-09-03T02:07:31.175Z,15.60
2018-09-03T02:09:58.901Z,15.62
2018-09-03T02:12:26.602Z,15.63
2018-09-03T02:14:54.372Z,15.71
2018-09-03T02:17:22.143Z,15.73
2018-09-03T02:19:49.865Z,15.69
2018-09-03T02:22:17.702Z,15.66
2018-09-03T02:24:45.475Z,15.65
2018-09-03T02:27:13.379Z,15.64
2018-09-03T02:29:41.089Z,15.64
2018-09-03T02:32:08.910Z,15.68
2018-09-03T02:34:37.057Z,15.65
2018-09-03T02:37:05.162Z,15.66
2018-09-03T02:39:39.950Z,15.67
2018-09-03T02:42:08.055Z,15.73
2018-09-03T02:44:35.914Z,15.71
2018-09-03T02:47:04.708Z,15.69
2018-09-03T02:49:32.422Z,15.71
2018-09-03T02:52:00.259Z,15.67
2018-09-03T02:54:27.982Z,15.71
2018-09-03T02:56:55.770Z,15.68
2018-09-03T02:59:23.490Z,15.80
2018-09-03T03:01:51.326Z,15.75
2018-09-03T03:04:34.027Z,15.78
2018-09-03T03:07:01.851Z,15.74
2018-09-03T03:09:29.506Z,15.76
2018-09-03T03:11:57.256Z,15.80
2018-09-03T03:14:25.064Z,15.80
2018-09-03T03:16:52.940Z,15.83
2018-09-03T03:19:20.683Z,15.82
2018-09-03T03:21:48.490Z,15.79
2018-09-03T03:24:16.223Z,15.78
2018-09-03T03:26:43.993Z,15.83
2018-09-03T03:29:11.797Z,15.82
2018-09-03T03:31:39.486Z,15.83
2018-09-03T03:34:07.311Z,15.79
2018-09-03T03:36:35.027Z,15.83
2018-09-03T03:39:03.607Z,15.85
2018-09-03T03:41:31.286Z,15.84
2018-09-03T03:43:58.963Z,15.88
2018-09-03T03:46:26.691Z,15.84
2018-09-03T03:48:54.466Z,15.91
2018-09-03T03:51:22.172Z,15.89
2018-09-03T03:53:49.963Z,15.96
2018-09-03T03:56:17.699Z,15.93
2018-09-03T03:58:45.544Z,15.90
2018-09-03T04:01:13.227Z,15.91
2018-09-03T04:03:41.078Z,15.90
2018-09-03T04:06:08.970Z,15.92
2018-09-03T04:08:36.785Z,15.98
2018-09-03T04:11:04.995Z,16.02
2018-09-03T04:13:32.769Z,16.05
2018-09-03T04:16:07.421Z,16.05
2018-09-03T04:18:35.189Z,16.01
2018-09-03T04:21:02.914Z,15.98
2018-09-03T04:23:30.594Z,15.97
2018-09-03T04:25:58.431Z,15.96
2018-09-03T04:28:26.139Z,15.98
2018-09-03T04:30:53.909Z,15.99
2018-09-03T04:33:48.945Z,16.02
2018-09-03T04:36:18.183Z,15.97
2018-09-03T04:38:45.920Z,15.92
2018-09-03T04:41:20.287Z,15.93
2018-09-03T04:43:47.991Z,15.95
2018-09-03T04:46:15.664Z,15.95
2018-09-03T04:48:44.193Z,16.01
2018-09-03T04:51:11.891Z,15.97
2018-09-03T04:53:39.578Z,16.03
2018-09-03T04:56:07.347Z,16.04
2018-09-03T04:58:35.018Z,15.98
2018-09-03T05:01:02.728Z,15.98
2018-09-03T05:03:30.449Z,16.02
2018-09-03T05:06:01.632Z,15.94
2018-09-03T05:08:29.790Z,15.86
2018-09-03T05:10:57.486Z,15.92
2018-09-03T05:13:25.181Z,15.92
2018-09-03T05:15:52.875Z,15.94
2018-09-03T05:18:20.609Z,15.94
2018-09-03T05:20:48.358Z,15.93
2018-09-03T05:23:16.114Z,15.98
2018-09-03T05:25:43.798Z,15.99
2018-09-03T05:28:11.555Z,16.01
2018-09-03T05:30:39.299Z,16.02
2018-09-03T05:33:07.064Z,16.04
2018-09-03T05:35:34.807Z,16.04
2018-09-03T05:38:02.679Z,16.04
2018-09-03T05:40:30.481Z,16.05
2018-09-03T05:42:58.381Z,16.08
2018-09-03T05:45:26.050Z,16.20
2018-09-03T05:47:53.783Z,16.21
2018-09-03T05:50:21.811Z,16.08
2018-09-03T05:52:49.472Z,16.15
2018-09-03T05:55:17.219Z,16.17
2018-09-03T05:57:44.916Z,16.30
2018-09-03T06:00:12.666Z,16.22
2018-09-03T06:02:40.663Z,16.08
2018-09-03T06:05:08.351Z,16.24
2018-09-03T06:07:40.228Z,16.25
2018-09-03T06:10:08.194Z,16.22
2018-09-03T06:12:42.841Z,16.22
2018-09-03T06:15:10.544Z,16.26
2018-09-03T06:17:38.660Z,16.40
2018-09-03T06:20:06.762Z,16.51
2018-09-03T06:22:34.479Z,16.59
2018-09-03T06:25:02.664Z,16.65
2018-09-03T06:27:30.370Z,16.77
2018-09-03T06:29:58.106Z,16.86
2018-09-03T06:32:25.865Z,16.85
2018-09-03T06:34:53.641Z,16.75
2018-09-03T06:37:21.391Z,16.71
2018-09-03T06:39:49.111Z,16.84
2018-09-03T06:42:16.826Z,16.88
2018-09-03T06:44:45.624Z,16.91
2018-09-03T06:47:13.664Z,16.89
2018-09-03T06:49:41.587Z,16.93
2018-09-03T06:52:09.331Z,16.87
2018-09-03T06:54:37.062Z,16.92
2018-09-03T06:57:05.075Z,17.09
2018-09-03T06:59:32.824Z,17.23
2018-09-03T07:02:00.763Z,17.37
2018-09-03T07:04:28.571Z,17.48
2018-09-03T07:06:56.352Z,17.64
2018-09-03T07:09:24.039Z,17.62
2018-09-03T07:11:51.832Z,17.80
2018-09-03T07:14:19.552Z,17.90
2018-09-03T07:16:47.645Z,17.97
2018-09-03T07:19:15.430Z,18.04
2018-09-03T07:21:43.169Z,18.04
2018-09-03T07:24:10.847Z,18.12
2018-09-03T07:26:38.580Z,18.16
2018-09-03T07:29:06.351Z,18.25
2018-09-03T07:31:34.032Z,18.32
2018-09-03T07:34:05.138Z,18.20
2018-09-03T07:36:32.897Z,18.30
2018-09-03T07:39:00.784Z,18.37
2018-09-03T07:41:28.511Z,18.44
2018-09-03T07:43:56.229Z,18.42
2018-09-03T07:46:23.973Z,18.42
2018-09-03T07:48:51.898Z,18.51
2018-09-03T07:51:19.587Z,18.54
2018-09-03T07:53:47.584Z,18.67
2018-09-03T07:56:15.274Z,18.63
2018-09-03T07:58:43.045Z,18.62
2018-09-03T08:01:11.053Z,18.64
2018-09-03T08:03:38.742Z,18.73
2018-09-03T08:06:06.667Z,18.78
2018-09-03T08:08:34.355Z,18.74
2018-09-03T08:11:02.178Z,18.76
2018-09-03T08:13:38.130Z,18.85
2018-09-03T08:16:06.063Z,18.96
2018-09-03T08:18:33.874Z,19.17
2018-09-03T08:21:01.591Z,19.19
2018-09-03T08:23:29.361Z,19.06
2018-09-03T08:25:57.126Z,19.02
2018-09-03T08:28:24.851Z,19.22
2018-09-03T08:30:52.694Z,19.40
2018-09-03T08:33:20.390Z,19.57
2018-09-03T08:35:48.109Z,19.73
2018-09-03T08:38:15.855Z,19.42
2018-09-03T08:40:43.682Z,19.72
2018-09-03T08:43:11.557Z,19.68
2018-09-03T08:45:42.493Z,19.68
2018-09-03T08:48:10.319Z,19.82
2018-09-03T08:50:38.331Z,19.92
2018-09-03T08:53:06.304Z,19.94
2018-09-03T08:55:34.086Z,20.20
2018-09-03T08:58:02.112Z,20.34
2018-09-03T09:00:29.802Z,20.44
2018-09-03T09:02:57.571Z,20.67
2018-09-03T09:05:25.399Z,21.04
2018-09-03T09:07:53.259Z,21.04
2018-09-03T09:10:21.148Z,21.20
2018-09-03T09:12:48.967Z,21.28
2018-09-03T09:15:16.938Z,21.59
2018-09-03T09:17:44.728Z,22.01
2018-09-03T09:20:12.406Z,22.06
2018-09-03T09:22:40.211Z,22.46
2018-09-03T09:25:08.022Z,22.78
2018-09-03T09:27:35.674Z,23.15
2018-09-03T09:30:04.714Z,23.60
2018-09-03T09:32:32.402Z,24.00
2018-09-03T09:35:00.480Z,24.39
2018-09-03T09:37:28.155Z,24.54
2018-09-03T09:39:55.908Z,24.93
2018-09-03T09:42:23.762Z,25.36
2018-09-03T09:44:51.767Z,25.36
2018-09-03T09:47:19.984Z,25.29
2018-09-03T09:49:47.678Z,25.33
2018-09-03T09:52:15.475Z,25.32
2018-09-03T09:54:43.333Z,25.27
2018-09-03T09:57:11.039Z,24.86
2018-09-03T09:59:39.342Z,24.82
2018-09-03T10:02:07.221Z,24.69
2018-09-03T10:04:34.904Z,24.16
2018-09-03T10:07:02.707Z,24.50
2018-09-03T10:09:30.415Z,24.66
2018-09-03T10:12:01.665Z,24.54
2018-09-03T10:14:29.507Z,24.07
2018-09-03T10:16:57.229Z,23.85
2018-09-03T10:19:25.007Z,24.07
2018-09-03T10:21:52.747Z,23.52
2018-09-03T10:24:20.422Z,23.41
2018-09-03T10:26:48.193Z,23.41
2018-09-03T10:29:15.870Z,23.35
2018-09-03T10:31:43.651Z,23.13
2018-09-03T10:34:11.346Z,23.17
2018-09-03T10:36:39.223Z,23.17
2018-09-03T10:39:07.459Z,23.03
2018-09-03T10:41:35.492Z,22.96
2018-09-03T10:44:03.291Z,23.12
2018-09-03T10:46:31.059Z,23.08
2018-09-03T10:48:58.767Z,23.29
2018-09-03T10:51:26.527Z,23.14
2018-09-03T10:53:54.342Z,23.08
2018-09-03T10:56:22.191Z,23.48
2018-09-03T10:58:49.955Z,23.74
2018-09-03T11:03:57.600Z,24.09
2018-09-03T11:06:25.276Z,23.86
2018-09-03T11:08:53.135Z,23.71
2018-09-03T11:11:21.055Z,24.23
2018-09-03T11:13:48.883Z,24.48
2018-09-03T11:16:16.689Z,24.42
2018-09-03T11:18:44.438Z,24.85
2018-09-03T11:21:13.113Z,24.98
2018-09-03T11:23:40.706Z,25.29
2018-09-03T11:26:08.435Z,25.30
2018-09-03T11:28:36.181Z,25.78
2018-09-03T11:31:07.659Z,25.85
2018-09-03T11:33:35.343Z,25.91
2018-09-03T11:36:09.237Z,25.57
2018-09-03T11:38:37.055Z,25.83
2018-09-03T11:41:04.739Z,25.31
2018-09-03T11:43:32.409Z,25.51
2018-09-03T11:46:00.423Z,25.51
2018-09-03T11:48:28.125Z,25.41
2018-09-03T11:50:55.910Z,25.49
2018-09-03T11:53:23.597Z,25.19
2018-09-03T11:55:51.354Z,24.74
2018-09-03T11:58:19.098Z,24.39
2018-09-03T12:00:46.940Z,23.75
2018-09-03T12:03:21.151Z,23.64
2018-09-03T12:05:48.898Z,23.71
2018-09-03T12:08:16.591Z,23.69
2018-09-03T12:10:44.612Z,23.86
2018-09-03T12:13:12.302Z,23.82
2018-09-03T12:15:43.190Z,23.52
2018-09-03T12:18:11.272Z,23.63
2018-09-03T12:20:38.932Z,23.54
2018-09-03T12:23:06.619Z,23.77
2018-09-03T12:25:34.294Z,23.77
2018-09-03T12:28:02.293Z,23.57
2018-09-03T12:30:30.000Z,23.64
2018-09-03T12:32:58.502Z,23.51
2018-09-03T12:35:26.219Z,23.76
2018-09-03T12:37:54.087Z,23.88
2018-09-03T12:40:21.802Z,24.17
2018-09-03T12:42:49.589Z,24.29
2018-09-03T12:45:21.300Z,24.35
2018-09-03T12:47:49.112Z,24.13
2018-09-03T12:50:16.863Z,23.89
2018-09-03T12:52:44.783Z,24.05
2018-09-03T12:55:12.598Z,24.16
2018-09-03T12:57:40.263Z,24.19
2018-09-03T13:00:09.739Z,24.17
2018-09-03T13:02:39.413Z,24.12
2018-09-03T13:05:05.235Z,24.17
2018-09-03T13:07:32.975Z,24.05
2018-09-03T13:10:00.703Z,24.05
2018-09-03T13:12:28.452Z,24.08
2018-09-03T13:14:56.135Z,23.95
2018-09-03T13:17:23.797Z,23.98
2018-09-03T13:19:51.499Z,23.91
2018-09-03T13:22:19.362Z,23.94
2018-09-03T13:24:47.220Z,23.79
2018-09-03T13:27:17.139Z,23.75
2018-09-03T13:29:44.955Z,23.65
2018-09-03T13:32:12.662Z,23.51
2018-09-03T13:34:44.726Z,23.49
2018-09-03T13:37:12.423Z,23.49
2018-09-03T13:39:40.211Z,23.54
2018-09-03T13:42:07.981Z,23.49
2018-09-03T13:44:35.670Z,23.64
2018-09-03T13:47:03.400Z,23.67
2018-09-03T13:49:31.152Z,23.77
2018-09-03T13:51:58.980Z,23.82
2018-09-03T13:54:26.683Z,23.93
2018-09-03T13:56:54.503Z,23.95
2018-09-03T13:59:22.488Z,23.68
2018-09-03T14:01:50.827Z,23.68
2018-09-03T14:04:18.746Z,23.62
2018-09-03T14:06:46.502Z,23.34
2018-09-03T14:09:14.207Z,23.40
2018-09-03T14:11:42.062Z,23.37
2018-09-03T14:14:10.127Z,23.30
2018-09-03T14:16:37.875Z,23.23
2018-09-03T14:19:05.868Z,23.31
2018-09-03T14:21:33.581Z,23.28
2018-09-03T14:24:01.387Z,23.27
2018-09-03T14:26:29.138Z,23.35
2018-09-03T14:28:56.806Z,23.58
2018-09-03T14:31:24.575Z,23.49
2018-09-03T14:33:52.512Z,23.50
2018-09-03T14:36:20.316Z,23.37
2018-09-03T14:38:48.027Z,23.60
2018-09-03T14:41:15.770Z,23.71
2018-09-03T14:43:44.378Z,23.74
2018-09-03T14:46:12.291Z,23.92
2018-09-03T14:48:40.263Z,23.78
2018-09-03T14:51:12.006Z,23.89
2018-09-03T14:53:45.415Z,23.62
2018-09-03T14:56:13.207Z,23.69
2018-09-03T14:58:41.063Z,23.83
2018-09-03T15:01:08.939Z,23.67
2018-09-03T15:03:37.245Z,23.62
2018-09-03T15:06:05.394Z,23.86
2018-09-03T15:08:33.277Z,23.75
2018-09-03T15:11:01.217Z,23.76
2018-09-03T15:13:28.884Z,24.05
2018-09-03T15:15:56.932Z,24.08
2018-09-03T15:18:24.651Z,24.06
2018-09-03T15:20:52.359Z,24.16
2018-09-03T15:23:20.195Z,24.23
2018-09-03T15:25:47.929Z,24.25
2018-09-03T15:28:15.719Z,24.22
2018-09-03T15:30:43.395Z,24.10
2018-09-03T15:33:11.071Z,24.10
2018-09-03T15:35:39.075Z,23.95
2018-09-03T15:38:06.982Z,24.00
2018-09-03T15:40:34.646Z,23.68
2018-09-03T15:43:02.705Z,23.88
2018-09-03T15:45:30.388Z,24.06
2018-09-03T15:47:58.242Z,24.19
2018-09-03T15:50:26.043Z,24.04
2018-09-03T15:52:54.019Z,23.89
2018-09-03T15:55:21.829Z,23.99
2018-09-03T15:57:50.245Z,23.74
2018-09-03T16:00:17.976Z,23.84
2018-09-03T16:02:45.768Z,23.91
2018-09-03T16:05:13.454Z,23.81
2018-09-03T16:07:41.182Z,23.73
2018-09-03T16:10:08.998Z,23.79
2018-09-03T16:12:36.843Z,23.66
2018-09-03T16:15:05.040Z,23.65
2018-09-03T16:17:32.759Z,23.67
2018-09-03T16:20:00.665Z,23.57
2018-09-03T16:22:28.411Z,23.63
2018-09-03T16:24:56.257Z,23.50
2018-09-03T16:27:24.292Z,23.29
2018-09-03T16:29:51.972Z,23.37
2018-09-03T16:32:19.687Z,23.27
2018-09-03T16:34:47.391Z,23.23
2018-09-03T16:37:15.088Z,23.12
2018-09-03T16:39:42.784Z,23.00
2018-09-03T16:42:10.486Z,22.90
2018-09-03T16:44:38.235Z,22.93
2018-09-03T16:47:06.576Z,22.93
2018-09-03T16:49:34.266Z,22.92
2018-09-03T16:52:02.130Z,22.88
2018-09-03T16:54:33.636Z,22.79
2018-09-03T16:57:01.414Z,22.73
2018-09-03T16:59:29.212Z,22.63
2018-09-03T17:01:57.507Z,22.62
2018-09-03T17:04:25.574Z,22.54
2018-09-03T17:06:53.382Z,22.55
2018-09-03T17:09:21.415Z,22.46
2018-09-03T17:11:49.130Z,22.56
2018-09-03T17:14:16.946Z,22.45
2018-09-03T17:16:44.627Z,22.31
2018-09-03T17:19:12.624Z,22.34
2018-09-03T17:21:40.370Z,22.27
2018-09-03T17:24:08.398Z,22.24
2018-09-03T17:26:36.227Z,22.20
2018-09-03T17:29:04.133Z,22.23
2018-09-03T17:31:32.219Z,22.19
2018-09-03T17:33:59.891Z,22.10
2018-09-03T17:36:27.728Z,22.15
2018-09-03T17:38:55.538Z,22.15
2018-09-03T17:41:23.351Z,22.13
2018-09-03T17:43:51.153Z,22.10
2018-09-03T17:46:18.987Z,22.12
2018-09-03T17:48:46.775Z,22.05
2018-09-03T17:51:14.540Z,21.96
2018-09-03T17:53:51.822Z,21.88
2018-09-03T17:56:23.641Z,21.78
2018-09-03T17:58:52.149Z,21.73
2018-09-03T18:01:20.251Z,21.67
2018-09-03T18:03:48.032Z,21.66
2018-09-03T18:06:15.917Z,21.62
2018-09-03T18:08:43.715Z,21.55
2018-09-03T18:11:11.798Z,21.51
2018-09-03T18:13:39.528Z,21.40
2018-09-03T18:16:07.202Z,21.32
2018-09-03T18:18:34.918Z,21.23
2018-09-03T18:21:02.766Z,21.15
2018-09-03T18:23:30.821Z,21.10
2018-09-03T18:25:58.519Z,21.03
2018-09-03T18:28:26.206Z,20.95
2018-09-03T18:30:53.986Z,20.82
2018-09-03T18:33:21.714Z,20.74
2018-09-03T18:35:49.560Z,20.66
2018-09-03T18:38:17.532Z,20.60
2018-09-03T18:40:45.229Z,20.54
2018-09-03T18:43:13.204Z,20.49
2018-09-03T18:45:40.925Z,20.48
2018-09-03T18:48:08.680Z,20.41
2018-09-03T18:50:36.562Z,20.37
2018-09-03T18:53:04.371Z,20.34
2018-09-03T18:55:32.614Z,20.32
2018-09-03T18:58:00.350Z,20.29
2018-09-03T19:00:28.225Z,20.27
2018-09-03T19:02:55.883Z,20.23
2018-09-03T19:05:23.582Z,20.20
2018-09-03T19:07:51.438Z,20.15
2018-09-03T19:10:19.226Z,20.13
2018-09-03T19:12:46.914Z,20.10
2018-09-03T19:15:15.702Z,20.05
2018-09-03T19:17:43.431Z,19.99
2018-09-03T19:20:11.275Z,19.93
2018-09-03T19:22:39.017Z,19.88
2018-09-03T19:25:06.775Z,19.84
2018-09-03T19:27:34.498Z,19.78
2018-09-03T19:30:02.411Z,19.71
2018-09-03T19:32:30.183Z,19.65
2018-09-03T19:34:57.937Z,19.57
2018-09-03T19:37:25.679Z,19.50
2018-09-03T19:39:57.161Z,19.39
2018-09-03T19:42:24.932Z,19.36
2018-09-03T19:44:52.902Z,19.32
2018-09-03T19:47:20.626Z,19.27
2018-09-03T19:49:48.415Z,19.21
2018-09-03T19:52:16.199Z,19.15
2018-09-03T19:54:45.111Z,19.11
2018-09-03T19:57:12.814Z,19.05
2018-09-03T19:59:40.570Z,19.01
2018-09-03T20:02:08.877Z,18.91
2018-09-03T20:04:37.670Z,18.85
2018-09-03T20:07:05.462Z,18.81
2018-09-03T20:09:33.156Z,18.77
2018-09-03T20:12:00.976Z,18.74
2018-09-03T20:14:29.067Z,18.70
2018-09-03T20:16:57.732Z,18.66
2018-09-03T20:19:25.410Z,18.63
2018-09-03T20:21:53.138Z,18.58
2018-09-03T20:24:21.115Z,18.54
2018-09-03T20:26:48.851Z,18.49
2018-09-03T20:29:16.566Z,18.50
2018-09-03T20:31:44.571Z,18.47
2018-09-03T20:34:12.268Z,18.45
2018-09-03T20:36:39.950Z,18.44
2018-09-03T20:39:07.702Z,18.40
2018-09-03T20:41:35.665Z,18.39
2018-09-03T20:44:03.522Z,18.41
2018-09-03T20:46:31.686Z,18.34
2018-09-03T20:49:00.062Z,18.31
2018-09-03T20:51:27.845Z,18.30
2018-09-03T20:53:55.611Z,18.24
2018-09-03T20:56:23.363Z,18.24
2018-09-03T20:58:51.293Z,18.21
2018-09-03T21:01:19.328Z,18.10
2018-09-03T21:03:47.096Z,18.05
2018-09-03T21:06:18.303Z,18.01
2018-09-03T21:08:46.034Z,17.96
2018-09-03T21:11:13.774Z,17.92
2018-09-03T21:13:41.469Z,17.84
2018-09-03T21:16:09.150Z,17.79
2018-09-03T21:18:36.868Z,17.74
2018-09-03T21:21:04.926Z,17.76
2018-09-03T21:23:32.621Z,17.71
2018-09-03T21:26:00.420Z,17.69
2018-09-03T21:28:28.149Z,17.66
2018-09-03T21:30:57.038Z,17.63
2018-09-03T21:33:24.715Z,17.59
2018-09-03T21:35:52.477Z,17.61
2018-09-03T21:38:20.528Z,17.58
2018-09-03T21:40:48.263Z,17.55
2018-09-03T21:43:16.023Z,17.56
2018-09-03T21:45:44.088Z,17.63
2018-09-03T21:48:11.771Z,17.61
2018-09-03T21:50:39.541Z,17.55
2018-09-03T21:53:07.262Z,17.61
2018-09-03T21:55:35.030Z,17.54
2018-09-03T21:58:02.774Z,17.53
2018-09-03T22:00:30.531Z,17.52
2018-09-03T22:02:58.287Z,17.48
2018-09-03T22:05:26.101Z,17.43
2018-09-03T22:07:53.880Z,17.46
2018-09-03T22:10:21.810Z,17.43
2018-09-03T22:12:49.525Z,17.38
2018-09-03T22:15:17.407Z,17.35
2018-09-03T22:17:45.383Z,17.33
2018-09-03T22:20:13.119Z,17.32
2018-09-03T22:22:40.844Z,17.31
2018-09-03T22:25:08.579Z,17.29
2018-09-03T22:27:36.272Z,17.27
2018-09-03T22:30:04.676Z,17.27
2018-09-03T22:32:32.360Z,17.30
2018-09-03T22:35:00.291Z,17.26
2018-09-03T22:37:28.038Z,17.18
2018-09-03T22:39:55.707Z,17.14
2018-09-03T22:42:25.994Z,17.15
2018-09-03T22:44:55.228Z,17.13
2018-09-03T22:47:22.987Z,17.13
2018-09-03T22:49:50.678Z,17.14
2018-09-03T22:52:18.382Z,17.18
2018-09-03T22:54:49.742Z,17.15
2018-09-03T22:57:17.602Z,17.09
2018-09-03T22:59:45.276Z,17.12
2018-09-03T23:02:13.182Z,17.11
2018-09-03T23:04:40.887Z,17.11
2018-09-03T23:07:08.583Z,17.07
2018-09-03T23:09:36.326Z,17.04
2018-09-03T23:12:04.059Z,16.98
2018-09-03T23:14:31.774Z,16.98
2018-09-03T23:16:59.617Z,16.98
2018-09-03T23:19:27.414Z,16.93
2018-09-03T23:21:55.127Z,17.01
2018-09-03T23:24:22.894Z,16.93
2018-09-03T23:26:50.599Z,16.89
2018-09-03T23:29:18.640Z,16.90
2018-09-03T23:31:46.313Z,16.87
2018-09-03T23:34:14.065Z,16.87
2018-09-03T23:36:41.797Z,16.83
2018-09-03T23:39:09.502Z,16.80
2018-09-03T23:41:37.175Z,16.77
2018-09-03T23:44:11.757Z,16.72
2018-09-03T23:46:39.623Z,16.76
2018-09-03T23:49:07.353Z,16.78
2018-09-03T23:51:35.043Z,16.74
2018-09-03T23:54:02.846Z,16.72
2018-09-03T23:56:30.510Z,16.68
2018-09-03T23:58:58.200Z,16.69
